Time,TemperatureF,DewpointF,PressureIn,WindDirection,WindDirectionDegrees,WindSpeedMPH,WindSpeedGustMPH,Humidity,HourlyPrecipIn,Conditions,Clouds,dailyrainin,SoftwareType,DateUTC
2013-02-19 00:02:00,42.0,28.0,-100.00,North,9,6.0,14.0,58,0.00,,,-99.99,,2013-02-19 05:02:00,
2013-02-19 00:13:00,42.0,30.0,-100.00,North,8,7.0,14.0,59,0.00,,,-99.99,,2013-02-19 05:13:00,
2013-02-19 00:22:00,42.0,28.0,-100.00,WNW,283,7.0,14.0,58,0.00,,,-99.99,,2013-02-19 05:22:00,
2013-02-19 00:32:00,42.0,28.0,-100.00,NNE,19,8.0,14.0,56,0.00,,,-99.99,,2013-02-19 05:32:00,
2013-02-19 00:43:00,43.0,30.0,-100.00,NNE,15,7.0,14.0,58,0.00,,,-99.99,,2013-02-19 05:43:00,
2013-02-19 00:52:00,43.0,30.0,-100.00,NE,40,7.0,14.0,58,0.00,,,-99.99,,2013-02-19 05:52:00,
2013-02-19 01:03:00,42.0,30.0,-100.00,NNE,32,8.0,14.0,58,0.00,,,-99.99,,2013-02-19 06:03:00,
2013-02-19 01:12:00,43.0,30.0,-100.00,ENE,57,7.0,14.0,58,0.00,,,-99.99,,2013-02-19 06:12:00,
2013-02-19 01:22:00,43.0,30.0,-100.00,NNE,26,7.0,14.0,58,0.00,,,-99.99,,2013-02-19 06:22:00,
2013-02-19 01:32:00,43.0,30.0,-100.00,North,360,7.0,14.0,58,0.00,,,-99.99,,2013-02-19 06:32:00,
2013-02-19 01:42:00,41.0,28.0,-100.00,North,4,5.0,14.0,56,0.00,,,-99.99,,2013-02-19 06:42:00,
2013-02-19 01:52:00,42.0,28.0,-100.00,NNE,26,6.0,14.0,56,0.00,,,-99.99,,2013-02-19 06:52:00,
2013-02-19 02:02:00,43.0,28.0,-100.00,North,355,6.0,14.0,56,0.00,,,-99.99,,2013-02-19 07:02:00,
2013-02-19 02:12:00,43.0,30.0,-100.00,NNE,29,6.0,14.0,56,0.00,,,-99.99,,2013-02-19 07:12:00,
2013-02-19 02:22:00,46.0,32.0,-100.00,NE,35,6.0,14.0,55,0.00,,,-99.99,,2013-02-19 07:22:00,
2013-02-19 02:32:00,45.0,30.0,-100.00,NE,36,7.0,14.0,53,0.00,,,-99.99,,2013-02-19 07:32:00,
2013-02-19 02:42:00,45.0,30.0,-100.00,NE,35,8.0,14.0,54,0.00,,,-99.99,,2013-02-19 07:42:00,
2013-02-19 02:52:00,44.0,30.0,-100.00,NE,39,9.0,14.0,54,0.00,,,-99.99,,2013-02-19 07:52:00,
2013-02-19 03:02:00,45.0,30.0,-100.00,NE,39,9.0,14.0,55,2.83,,,-99.99,,2013-02-19 08:02:00,
2013-02-19 03:11:00,44.0,32.0,-100.00,NE,55,13.0,21.0,64,2.83,,,-99.99,,2013-02-19 08:11:00,
2013-02-19 03:22:00,42.0,32.0,-100.00,NE,43,16.0,21.0,72,2.83,,,-99.99,,2013-02-19 08:22:00,
2013-02-19 03:32:00,41.0,34.0,-100.00,NE,49,13.0,21.0,80,28.35,,,-99.99,,2013-02-19 08:32:00,
2013-02-19 03:42:00,41.0,37.0,-100.00,NNE,31,11.0,21.0,86,21.54,,,-99.99,,2013-02-19 08:42:00,
2013-02-19 03:52:00,40.0,36.0,-100.00,NNE,19,10.0,21.0,85,9.06,,,-99.99,,2013-02-19 08:52:00,
2013-02-19 04:02:00,40.0,36.0,-100.00,NE,38,9.0,21.0,86,1.14,,,-99.99,,2013-02-19 09:02:00,
2013-02-19 04:11:00,40.0,36.0,-100.00,NE,46,10.0,21.0,86,2.83,,,-99.99,,2013-02-19 09:11:00,
2013-02-19 04:22:00,40.0,36.0,-100.00,NNE,14,8.0,21.0,88,14.17,,,-99.99,,2013-02-19 09:22:00,
2013-02-19 04:32:00,40.0,36.0,-100.00,NNE,19,9.0,21.0,88,6.22,,,-99.99,,2013-02-19 09:32:00,
2013-02-19 04:42:00,40.0,36.0,-100.00,NNE,18,10.0,21.0,89,2.83,,,-99.99,,2013-02-19 09:42:00,
2013-02-19 04:52:00,40.0,36.0,-100.00,NE,43,10.0,21.0,88,6.22,,,-99.99,,2013-02-19 09:52:00,
2013-02-19 05:02:00,40.0,36.0,-100.00,NNE,14,6.0,21.0,88,2.83,,,-99.99,,2013-02-19 10:02:00,
2013-02-19 05:11:00,39.0,36.0,-100.00,NNE,32,7.0,21.0,89,1.14,,,-99.99,,2013-02-19 10:11:00,
2013-02-19 05:22:00,39.0,36.0,-100.00,North,358,9.0,21.0,89,0.00,,,-99.99,,2013-02-19 10:22:00,
2013-02-19 05:32:00,39.0,36.0,-100.00,North,7,8.0,21.0,89,0.00,,,-99.99,,2013-02-19 10:32:00,
2013-02-19 05:42:00,40.0,36.0,-100.00,NNE,19,9.0,21.0,89,0.00,,,-99.99,,2013-02-19 10:42:00,
2013-02-19 05:52:00,40.0,36.0,-100.00,NNE,12,9.0,21.0,88,7.36,,,-99.99,,2013-02-19 10:52:00,
2013-02-19 06:01:00,40.0,36.0,-100.00,North,355,8.0,21.0,89,6.22,,,-99.99,,2013-02-19 11:01:00,
2013-02-19 06:11:00,41.0,37.0,-100.00,NNE,26,8.0,21.0,90,10.79,,,-99.99,,2013-02-19 11:11:00,
2013-02-19 06:22:00,42.0,37.0,-100.00,NE,40,9.0,21.0,90,4.53,,,-99.99,,2013-02-19 11:22:00,
2013-02-19 06:32:00,42.0,39.0,-100.00,NNE,31,9.0,21.0,89,2.83,,,-99.99,,2013-02-19 11:32:00,
2013-02-19 06:42:00,41.0,37.0,-100.00,NE,48,9.0,21.0,90,6.22,,,-99.99,,2013-02-19 11:42:00,
2013-02-19 06:52:00,42.0,37.0,-100.00,NE,43,10.0,21.0,90,0.00,,,-99.99,,2013-02-19 11:52:00,
2013-02-19 07:02:00,41.0,37.0,-100.00,NNE,31,9.0,21.0,90,0.00,,,-99.99,,2013-02-19 12:02:00,
2013-02-19 07:12:00,41.0,37.0,-100.00,NNE,32,9.0,21.0,90,4.53,,,-99.99,,2013-02-19 12:12:00,
2013-02-19 07:22:00,42.0,37.0,-100.00,NE,35,10.0,21.0,89,0.00,,,-99.99,,2013-02-19 12:22:00,
2013-02-19 07:32:00,41.0,37.0,-100.00,NE,43,11.0,21.0,90,1.14,,,-99.99,,2013-02-19 12:32:00,
2013-02-19 07:42:00,41.0,37.0,-100.00,NE,45,9.0,21.0,90,2.83,,,-99.99,,2013-02-19 12:42:00,
2013-02-19 07:52:00,41.0,37.0,-100.00,NE,49,10.0,21.0,90,1.14,,,-99.99,,2013-02-19 12:52:00,
2013-02-19 08:02:00,42.0,39.0,-100.00,ENE,64,8.0,21.0,90,0.00,,,-99.99,,2013-02-19 13:02:00,
2013-02-19 08:11:00,39.0,36.0,-100.00,ENE,60,9.0,21.0,88,0.00,,,-99.99,,2013-02-19 13:11:00,
2013-02-19 08:22:00,42.0,37.0,-100.00,ENE,57,11.0,21.0,90,0.00,,,-99.99,,2013-02-19 13:22:00,
2013-02-19 08:32:00,41.0,37.0,-100.00,NE,43,11.0,21.0,89,0.00,,,-99.99,,2013-02-19 13:32:00,
2013-02-19 08:42:00,43.0,39.0,-100.00,NNE,18,11.0,21.0,89,0.00,,,-99.99,,2013-02-19 13:42:00,
2013-02-19 08:52:00,42.0,37.0,-100.00,NE,49,14.0,21.0,89,0.00,,,-99.99,,2013-02-19 13:52:00,
2013-02-19 09:02:00,40.0,36.0,-100.00,NE,49,14.0,21.0,88,0.00,,,-99.99,,2013-02-19 14:02:00,
2013-02-19 09:12:00,42.0,39.0,-100.00,NE,48,10.0,21.0,90,0.00,,,-99.99,,2013-02-19 14:12:00,
2013-02-19 09:22:00,41.0,36.0,-100.00,NE,45,10.0,21.0,88,0.00,,,-99.99,,2013-02-19 14:22:00,
2013-02-19 09:33:00,40.0,36.0,-100.00,NE,38,10.0,21.0,88,1.14,,,-99.99,,2013-02-19 14:33:00,
2013-02-19 09:42:00,40.0,36.0,-100.00,NE,43,10.0,21.0,89,6.22,,,-99.99,,2013-02-19 14:42:00,
2013-02-19 09:52:00,41.0,37.0,-100.00,ENE,60,8.0,21.0,89,14.17,,,-99.99,,2013-02-19 14:52:00,
2013-02-19 10:02:00,40.0,36.0,-100.00,NE,52,7.0,21.0,89,9.06,,,-99.99,,2013-02-19 15:02:00,
2013-02-19 10:11:00,40.0,37.0,-100.00,ENE,59,7.0,21.0,91,12.48,,,-99.99,,2013-02-19 15:11:00,
2013-02-19 10:22:00,40.0,37.0,-100.00,ESE,117,6.0,21.0,91,7.36,,,-99.99,,2013-02-19 15:22:00,
2013-02-19 10:32:00,37.0,34.0,-100.00,SSE,155,5.0,21.0,91,6.22,,,-99.99,,2013-02-19 15:32:00,
2013-02-19 10:42:00,36.0,34.0,-100.00,SE,139,3.0,21.0,93,24.96,,,-99.99,,2013-02-19 15:42:00,
2013-02-19 10:52:00,36.0,34.0,-100.00,ESE,112,2.0,21.0,94,2.83,,,-99.99,,2013-02-19 15:52:00,
2013-02-19 11:02:00,36.0,34.0,-100.00,ESE,104,2.0,21.0,94,0.00,,,-99.99,,2013-02-19 16:02:00,
2013-02-19 11:11:00,36.0,34.0,-100.00,ESE,120,2.0,21.0,94,0.00,,,-99.99,,2013-02-19 16:11:00,
2013-02-19 11:22:00,38.0,36.0,-100.00,ESE,108,4.0,21.0,95,0.00,,,-99.99,,2013-02-19 16:22:00,
2013-02-19 11:32:00,37.0,36.0,-100.00,East,87,6.0,21.0,95,0.00,,,-99.99,,2013-02-19 16:32:00,
2013-02-19 11:42:00,36.0,32.0,-100.00,SE,135,6.0,21.0,93,0.00,,,-99.99,,2013-02-19 16:42:00,
2013-02-19 11:52:00,36.0,34.0,-100.00,ENE,73,6.0,21.0,93,0.00,,,-99.99,,2013-02-19 16:52:00,
2013-02-19 12:01:00,35.0,32.0,-100.00,SE,125,7.0,21.0,90,0.00,,,-99.99,,2013-02-19 17:01:00,
2013-02-19 12:11:00,36.0,32.0,-100.00,SE,128,7.0,21.0,89,0.00,,,-99.99,,2013-02-19 17:11:00,
2013-02-19 12:21:00,37.0,34.0,-100.00,ESE,103,6.0,21.0,90,0.00,,,-99.99,,2013-02-19 17:21:00,
2013-02-19 12:32:00,36.0,32.0,-100.00,ESE,120,6.0,21.0,90,0.00,,,-99.99,,2013-02-19 17:32:00,
2013-02-19 12:42:00,33.0,30.0,-100.00,SE,124,6.0,21.0,89,0.00,,,-99.99,,2013-02-19 17:42:00,
2013-02-19 12:52:00,33.0,30.0,-100.00,East,98,6.0,21.0,89,0.00,,,-99.99,,2013-02-19 17:52:00,
2013-02-19 13:02:00,33.0,30.0,-100.00,East,101,6.0,21.0,88,0.00,,,-99.99,,2013-02-19 18:02:00,
2013-02-19 13:11:00,37.0,32.0,-100.00,ESE,120,4.0,21.0,89,0.00,,,-99.99,,2013-02-19 18:11:00,
2013-02-19 13:22:00,34.0,32.0,-100.00,ENE,67,6.0,21.0,86,0.00,,,-99.99,,2013-02-19 18:22:00,
2013-02-19 13:32:00,32.0,28.0,-100.00,ESE,115,7.0,21.0,86,0.00,,,-99.99,,2013-02-19 18:32:00,
2013-02-19 13:42:00,35.0,32.0,-100.00,East,97,7.0,21.0,88,0.00,,,-99.99,,2013-02-19 18:42:00,
2013-02-19 13:52:00,31.0,28.0,-100.00,ESE,115,7.0,21.0,86,0.00,,,-99.99,,2013-02-19 18:52:00,
2013-02-19 14:01:00,31.0,28.0,-100.00,SE,124,9.0,21.0,84,0.00,,,-99.99,,2013-02-19 19:01:00,
2013-02-19 14:11:00,31.0,27.0,-100.00,ESE,105,9.0,21.0,80,0.00,,,-99.99,,2013-02-19 19:11:00,
2013-02-19 14:21:00,30.0,25.0,-100.00,SE,141,9.0,21.0,76,0.00,,,-99.99,,2013-02-19 19:21:00,
2013-02-19 14:32:00,30.0,25.0,-100.00,ESE,105,9.0,21.0,77,0.00,,,-99.99,,2013-02-19 19:32:00,
2013-02-19 14:42:00,30.0,23.0,-100.00,ESE,112,8.0,21.0,72,0.00,,,-99.99,,2013-02-19 19:42:00,
2013-02-19 14:52:00,30.0,23.0,-100.00,East,97,6.0,21.0,73,0.00,,,-99.99,,2013-02-19 19:52:00,
2013-02-19 15:02:00,31.0,25.0,-100.00,ESE,103,4.0,21.0,73,0.00,,,-99.99,,2013-02-19 20:02:00,
2013-02-19 15:12:00,31.0,25.0,-100.00,SE,136,6.0,21.0,75,0.00,,,-99.99,,2013-02-19 20:12:00,
2013-02-19 15:22:00,30.0,25.0,-100.00,East,87,7.0,21.0,75,0.00,,,-99.99,,2013-02-19 20:22:00,
2013-02-19 15:32:00,31.0,25.0,-100.00,ESE,117,6.0,21.0,75,1.14,,,-99.99,,2013-02-19 20:32:00,
2013-02-19 15:42:00,31.0,25.0,-100.00,ESE,105,6.0,21.0,76,1.14,,,-99.99,,2013-02-19 20:42:00,
2013-02-19 15:52:00,30.0,25.0,-100.00,East,83,6.0,21.0,76,0.00,,,-99.99,,2013-02-19 20:52:00,
2013-02-19 16:02:00,31.0,25.0,-100.00,ENE,69,4.0,21.0,77,1.14,,,-99.99,,2013-02-19 21:02:00,
2013-02-19 16:11:00,30.0,25.0,-100.00,ESE,103,5.0,21.0,77,2.83,,,-99.99,,2013-02-19 21:11:00,
2013-02-19 16:21:00,30.0,25.0,-100.00,ENE,69,5.0,5.0,77,1.14,,,-99.99,,2013-02-19 21:21:00,
2013-02-19 16:32:00,29.0,25.0,-100.00,ESE,114,6.0,10.0,80,2.83,,,-99.99,,2013-02-19 21:32:00,
2013-02-19 16:42:00,28.0,23.0,-100.00,SE,124,6.0,10.0,81,2.83,,,-99.99,,2013-02-19 21:42:00,
2013-02-19 16:51:00,27.0,25.0,-100.00,ESE,114,7.0,10.0,84,1.14,,,-99.99,,2013-02-19 21:51:00,
2013-02-19 17:02:00,29.0,25.0,-100.00,ENE,60,9.0,12.0,81,4.53,,,-99.99,,2013-02-19 22:02:00,
2013-02-19 17:11:00,28.0,23.0,-100.00,East,91,7.0,12.0,80,1.14,,,-99.99,,2013-02-19 22:11:00,
2013-02-19 17:22:00,28.0,23.0,-100.00,East,97,7.0,12.0,78,2.83,,,-99.99,,2013-02-19 22:22:00,
2013-02-19 17:32:00,28.0,23.0,-100.00,ENE,66,6.0,12.0,77,7.36,,,-99.99,,2013-02-19 22:32:00,
2013-02-19 17:42:00,28.0,23.0,-100.00,ENE,66,6.0,12.0,78,6.22,,,-99.99,,2013-02-19 22:42:00,
2013-02-19 17:52:00,27.0,23.0,-100.00,East,101,4.0,12.0,80,1.14,,,-99.99,,2013-02-19 22:52:00,
2013-02-19 18:01:00,26.0,23.0,-100.00,ESE,118,4.0,12.0,84,18.70,,,-99.99,,2013-02-19 23:01:00,
2013-02-19 18:11:00,25.0,21.0,-100.00,East,87,4.0,12.0,85,21.54,,,-99.99,,2013-02-19 23:11:00,
2013-02-19 18:21:00,27.0,23.0,-100.00,SE,144,6.0,12.0,84,0.00,,,-99.99,,2013-02-19 23:21:00,
2013-02-19 18:32:00,25.0,21.0,-100.00,SSE,148,6.0,12.0,84,0.00,,,-99.99,,2013-02-19 23:32:00,
2013-02-19 18:42:00,23.0,19.0,-100.00,ESE,105,7.0,12.0,82,0.00,,,-99.99,,2013-02-19 23:42:00,
2013-02-19 18:52:00,23.0,19.0,-100.00,SE,141,7.0,12.0,84,0.00,,,-99.99,,2013-02-19 23:52:00,
2013-02-19 19:01:00,28.0,25.0,-100.00,ESE,114,7.0,12.0,86,18.70,,,-99.99,,2013-02-20 00:01:00,
2013-02-19 19:11:00,24.0,23.0,-100.00,ESE,108,5.0,12.0,89,1.14,,,-99.99,,2013-02-20 00:11:00,
2013-02-19 19:22:00,25.0,23.0,-100.00,East,79,4.0,12.0,89,0.00,,,-99.99,,2013-02-20 00:22:00,
2013-02-19 19:32:00,26.0,25.0,-100.00,East,87,5.0,12.0,89,0.00,,,-99.99,,2013-02-20 00:32:00,
2013-02-19 19:42:00,25.0,23.0,-100.00,ESE,110,6.0,12.0,88,0.00,,,-99.99,,2013-02-20 00:42:00,
2013-02-19 19:52:00,24.0,21.0,-100.00,SE,125,6.0,12.0,88,10.79,,,-99.99,,2013-02-20 00:52:00,
2013-02-19 20:02:00,23.0,21.0,-100.00,East,84,4.0,12.0,89,4.53,,,-99.99,,2013-02-20 01:02:00,
2013-02-19 20:11:00,25.0,23.0,-100.00,ESE,120,6.0,12.0,89,-99.99,,,-99.99,,2013-02-20 01:11:00,
2013-02-19 20:22:00,25.0,23.0,-100.00,SE,127,4.0,12.0,90,-99.99,,,-99.99,,2013-02-20 01:22:00,
2013-02-19 20:32:00,23.0,21.0,-100.00,ESE,118,5.0,12.0,91,17.01,,,-99.99,,2013-02-20 01:32:00,
2013-02-19 20:42:00,22.0,21.0,-100.00,SE,128,6.0,12.0,93,12.48,,,-99.99,,2013-02-20 01:42:00,
2013-02-19 20:52:00,22.0,21.0,-100.00,SE,142,6.0,12.0,91,17.01,,,-99.99,,2013-02-20 01:52:00,
2013-02-19 21:02:00,22.0,21.0,-100.00,East,97,6.0,12.0,93,12.48,,,-99.99,,2013-02-20 02:02:00,
2013-02-19 21:11:00,22.0,21.0,-100.00,SE,132,6.0,12.0,93,21.54,,,-99.99,,2013-02-20 02:11:00,
2013-02-19 21:22:00,21.0,19.0,-100.00,SE,139,7.0,12.0,91,15.31,,,-99.99,,2013-02-20 02:22:00,
2013-02-19 21:32:00,20.0,19.0,-100.00,ESE,110,7.0,12.0,91,7.36,,,-99.99,,2013-02-20 02:32:00,
2013-02-19 21:42:00,20.0,19.0,-100.00,East,98,6.0,12.0,91,1.14,,,-99.99,,2013-02-20 02:42:00,
2013-02-19 21:52:00,19.0,18.0,-100.00,SE,124,7.0,12.0,90,1.14,,,-99.99,,2013-02-20 02:52:00,
2013-02-19 22:02:00,21.0,19.0,-100.00,ESE,121,6.0,12.0,90,1.14,,,-99.99,,2013-02-20 03:02:00,
2013-02-19 22:12:00,20.0,18.0,-100.00,ENE,60,6.0,12.0,89,0.00,,,-99.99,,2013-02-20 03:12:00,
2013-02-19 22:22:00,19.0,18.0,-100.00,SSE,166,5.0,12.0,89,4.53,,,-99.99,,2013-02-20 03:22:00,
2013-02-19 22:32:00,19.0,18.0,-100.00,ENE,62,6.0,12.0,89,4.53,,,-99.99,,2013-02-20 03:32:00,
2013-02-19 22:42:00,19.0,18.0,-100.00,East,94,6.0,12.0,89,6.22,,,-99.99,,2013-02-20 03:42:00,
2013-02-19 22:52:00,19.0,18.0,-100.00,East,97,6.0,12.0,89,1.14,,,-99.99,,2013-02-20 03:52:00,
2013-02-19 23:01:00,20.0,19.0,-100.00,East,100,4.0,12.0,89,2.83,,,-99.99,,2013-02-20 04:01:00,
2013-02-19 23:11:00,20.0,18.0,-100.00,East,81,4.0,12.0,89,10.79,,,-99.99,,2013-02-20 04:11:00,
2013-02-19 23:21:00,18.0,16.0,-100.00,ESE,122,4.0,12.0,88,4.53,,,-99.99,,2013-02-20 04:21:00,
2013-02-19 23:32:00,18.0,16.0,-100.00,ENE,66,4.0,12.0,89,17.01,,,-99.99,,2013-02-20 04:32:00,
2013-02-19 23:42:00,19.0,18.0,-100.00,SSE,151,4.0,12.0,90,0.00,,,-99.99,,2013-02-20 04:42:00,
2013-02-19 23:52:00,20.0,18.0,-100.00,SE,128,5.0,12.0,89,6.22,,,-99.99,,2013-02-20 04:52:00,